Time;durP1;ratioP1;P1;durP2;ratioP2;P2;SDS_P1;SDS_P2;PMS_P1;PMS_P2;Temp;Humidity;BMP_temperature;BMP_pressure;BME280_temperature;BME280_humidity;BME280_pressure;Samples;Min_cycle;Max_cycle;Signal;HPM_P1;HPM_P2
2021/06/20 12:15:04;;;;;;;9.95;4.72;;;34.40;59.30;;;;;;3658064;39;20452;-82
2021/06/20 12:17:32;;;;;;;11.40;5.20;;;34.80;59.30;;;;;;3630811;39;20094;-82
2021/06/20 12:20:01;;;;;;;13.88;5.18;;;34.90;59.30;;;;;;3640750;39;20319;-84
2021/06/20 12:22:29;;;;;;;10.35;4.53;;;34.40;60.30;;;;;;3632168;39;20078;-83
2021/06/20 12:25:01;;;;;;;12.55;5.35;;;34.60;59.90;;;;;;3623031;39;20067;-84
2021/06/20 12:27:36;;;;;;;18.98;5.35;;;35.20;59.50;;;;;;3623382;39;20066;-83
2021/06/20 12:30:17;;;;;;;10.18;4.40;;;34.60;58.70;;;;;;3634858;39;20083;-83
2021/06/20 12:32:48;;;;;;;13.25;4.80;;;33.20;60.30;;;;;;3648665;39;20058;-82
2021/06/20 12:35:22;;;;;;;13.18;4.57;;;33.30;60.70;;;;;;3623521;39;20056;-82
2021/06/20 12:37:58;;;;;;;12.15;4.57;;;33.00;61.30;;;;;;3611281;39;20441;-82
2021/06/20 12:40:31;;;;;;;12.95;4.60;;;32.60;62.40;;;;;;3603887;39;20072;-83
2021/06/20 12:43:00;;;;;;;13.05;4.55;;;32.70;62.30;;;;;;3598005;39;20063;-81
2021/06/20 12:45:36;;;;;;;17.02;5.00;;;33.60;60.70;;;;;;3613711;39;20079;-82
2021/06/20 12:48:15;;;;;;;11.35;3.95;;;34.30;58.80;;;;;;3598948;39;20095;-82
2021/06/20 12:50:49;;;;;;;15.52;4.28;;;33.50;58.50;;;;;;3606345;39;20071;-82
2021/06/20 12:53:28;;;;;;;12.57;4.40;;;33.10;59.70;;;;;;3610851;39;20055;-82
2021/06/20 12:56:00;;;;;;;14.68;3.92;;;33.70;59.00;;;;;;3601759;39;20099;-80
2021/06/20 12:58:32;;;;;;;10.60;4.57;;;34.10;58.20;;;;;;3601858;39;20083;-83
2021/06/20 13:01:07;;;;;;;13.50;4.05;;;34.50;57.20;;;;;;3592184;39;20075;-81
2021/06/20 13:03:36;;;;;;;9.75;4.10;;;33.60;57.60;;;;;;3603622;39;20079;-83
2021/06/20 13:06:11;;;;;;;9.35;4.20;;;32.80;58.90;;;;;;3628528;39;20066;-81
2021/06/20 13:08:40;;;;;;;8.20;3.60;;;31.80;60.30;;;;;;3618911;39;20070;-81
2021/06/20 13:11:08;;;;;;;;;;;31.50;61.40;;;;;;3645756;39;20368;-83
2021/06/20 13:13:35;;;;;;;9.38;3.83;;;31.40;61.80;;;;;;3628528;39;20298;-83
2021/06/20 13:16:07;;;;;;;9.30;3.80;;;31.20;62.10;;;;;;3639054;39;20086;-81
2021/06/20 13:18:35;;;;;;;9.82;3.75;;;31.20;62.60;;;;;;3631393;39;20086;-81
2021/06/20 13:21:06;;;;;;;10.65;3.45;;;31.00;63.10;;;;;;3633774;39;20089;-81
2021/06/20 13:23:34;;;;;;;12.43;3.92;;;30.90;62.00;;;;;;3633606;39;20070;-81
2021/06/20 13:26:05;;;;;;;10.57;3.05;;;31.00;61.60;;;;;;3629005;39;20293;-82
2021/06/20 13:28:32;;;;;;;9.65;3.80;;;31.20;60.80;;;;;;3619871;39;20079;-83
2021/06/20 13:31:00;;;;;;;9.55;3.00;;;31.30;60.60;;;;;;3628496;39;20406;-81
2021/06/20 13:33:33;;;;;;;9.15;3.35;;;31.50;60.30;;;;;;3626815;39;20316;-84
2021/06/20 13:36:01;;;;;;;7.03;2.92;;;31.40;59.80;;;;;;3622462;39;20067;-82
2021/06/20 13:38:31;;;;;;;6.65;3.22;;;31.50;59.00;;;;;;3632471;39;20064;-83
2021/06/20 13:41:02;;;;;;;8.63;3.63;;;31.60;58.90;;;;;;3615073;39;20087;-83
2021/06/20 13:43:31;;;;;;;8.85;3.17;;;31.60;59.20;;;;;;3633209;39;20066;-83
2021/06/20 13:46:01;;;;;;;10.85;2.92;;;31.70;59.00;;;;;;3633730;39;20086;-84
2021/06/20 13:48:33;;;;;;;12.18;3.00;;;31.70;58.20;;;;;;3627949;39;20071;-83
2021/06/20 13:51:03;;;;;;;10.18;3.15;;;31.80;57.00;;;;;;3630276;39;20035;-82
2021/06/20 13:53:35;;;;;;;9.52;2.63;;;31.90;57.30;;;;;;3635853;39;20070;-81
2021/06/20 13:56:06;;;;;;;6.55;3.35;;;31.90;57.30;;;;;;3633198;39;20312;-81
2021/06/20 13:58:34;;;;;;;9.07;3.10;;;31.90;57.40;;;;;;3620154;39;20090;-81
2021/06/20 14:01:02;;;;;;;9.77;3.55;;;32.00;57.20;;;;;;3633359;39;20393;-78
2021/06/20 14:03:32;;;;;;;11.25;3.03;;;32.00;57.00;;;;;;3630898;39;20090;-79
2021/06/20 14:06:02;;;;;;;8.93;2.63;;;31.60;57.20;;;;;;3622071;39;20086;-81
2021/06/20 14:08:30;;;;;;;9.02;2.80;;;31.20;58.30;;;;;;3622559;39;20354;-82
2021/06/20 14:10:59;;;;;;;9.85;2.75;;;31.10;58.90;;;;;;3631684;39;20391;-80
2021/06/20 14:13:26;;;;;;;10.43;3.22;;;31.10;59.90;;;;;;3631241;39;20075;-79
2021/06/20 14:15:54;;;;;;;10.77;3.13;;;31.40;58.90;;;;;;3630857;39;20074;-79
2021/06/20 14:18:22;;;;;;;10.77;3.28;;;31.50;58.40;;;;;;3631815;39;20393;-79
2021/06/20 14:20:51;;;;;;;7.18;2.78;;;31.30;58.50;;;;;;3623333;39;20083;-80
2021/06/20 14:23:20;;;;;;;6.95;2.85;;;31.20;58.60;;;;;;3622499;39;20106;-80
2021/06/20 14:25:47;;;;;;;9.82;2.75;;;30.90;59.70;;;;;;3631132;39;20087;-80
2021/06/20 14:28:15;;;;;;;15.30;3.53;;;30.70;59.30;;;;;;3632669;39;20290;-80
2021/06/20 14:30:44;;;;;;;9.05;2.67;;;30.60;58.90;;;;;;3641873;39;20113;-82
2021/06/20 14:33:14;;;;;;;7.72;2.50;;;30.60;59.10;;;;;;3623803;39;20059;-80
2021/06/20 14:35:42;;;;;;;10.00;2.80;;;30.70;58.20;;;;;;3622292;39;20117;-82
2021/06/20 14:38:13;;;;;;;9.50;2.63;;;30.90;58.60;;;;;;3613429;39;20295;-79
2021/06/20 14:40:42;;;;;;;10.27;2.88;;;31.10;58.90;;;;;;3614389;39;20078;-78
2021/06/20 14:43:09;;;;;;;;;;;31.20;58.00;;;;;;3623294;39;20087;-80
2021/06/20 14:45:37;;;;;;;7.28;2.15;;;31.30;58.50;;;;;;3624208;39;20233;-83
2021/06/20 14:48:06;;;;;;;7.13;2.83;;;31.20;57.90;;;;;;3630990;39;20082;-84
2021/06/20 14:50:35;;;;;;;7.60;2.60;;;31.10;57.70;;;;;;3631191;39;20058;-78
2021/06/20 14:53:03;;;;;;;8.43;2.83;;;31.10;57.90;;;;;;3629545;39;20329;-80
2021/06/20 14:55:32;;;;;;;6.07;2.42;;;31.10;58.20;;;;;;3622968;39;20091;-80
2021/06/20 14:58:00;;;;;;;11.88;3.53;;;30.80;59.40;;;;;;3622563;39;20377;-81
2021/06/20 15:00:28;;;;;;;11.50;2.40;;;30.70;59.90;;;;;;3648233;39;20090;-81
2021/06/20 15:02:56;;;;;;;8.70;2.45;;;30.80;59.00;;;;;;3630447;39;20059;-81
2021/06/20 15:05:25;;;;;;;13.70;2.75;;;30.80;59.40;;;;;;3631514;39;20075;-81
2021/06/20 15:07:54;;;;;;;9.32;2.58;;;31.00;59.10;;;;;;3631799;39;20091;-80
2021/06/20 15:10:22;;;;;;;8.57;3.05;;;31.10;59.50;;;;;;3631336;39;20333;-81
2021/06/20 15:12:53;;;;;;;7.53;2.70;;;31.30;59.40;;;;;;3622503;39;20302;-81
2021/06/20 15:15:21;;;;;;;8.15;2.58;;;31.60;60.50;;;;;;3622538;39;20070;-80
2021/06/20 15:17:49;;;;;;;8.93;2.90;;;32.10;60.40;;;;;;3613089;39;20082;-81
2021/06/20 15:20:18;;;;;;;12.68;3.42;;;32.10;61.40;;;;;;3628203;39;20058;-79
2021/06/20 15:22:46;;;;;;;13.40;3.33;;;33.50;60.80;;;;;;3626344;39;20075;-81
2021/06/20 15:25:16;;;;;;;10.82;3.95;;;34.10;59.30;;;;;;3633971;39;20289;-81
2021/06/20 15:27:44;;;;;;;;;;;33.40;59.70;;;;;;3630624;39;20087;-80
2021/06/20 15:30:15;;;;;;;11.38;4.18;;;33.10;61.00;;;;;;3627537;39;20293;-80
2021/06/20 15:32:50;;;;;;;10.48;3.47;;;33.30;61.30;;;;;;3605719;39;20087;-79
2021/06/20 15:35:19;;;;;;;11.60;4.22;;;32.60;60.90;;;;;;3600101;39;20032;-81
2021/06/20 15:37:49;;;;;;;11.93;4.18;;;32.20;62.50;;;;;;3606441;39;20489;-82
2021/06/20 15:40:18;;;;;;;10.27;4.07;;;32.70;62.10;;;;;;3609366;39;20441;-81
2021/06/20 15:42:51;;;;;;;7.85;3.20;;;33.10;61.20;;;;;;3593240;39;20099;-81
2021/06/20 15:45:22;;;;;;;9.18;3.50;;;33.10;60.00;;;;;;3600623;39;20091;-80
2021/06/20 15:47:53;;;;;;;7.88;3.13;;;33.00;59.80;;;;;;3592390;39;20072;-80
2021/06/20 15:50:23;;;;;;;11.98;3.70;;;32.70;60.60;;;;;;3609379;39;20418;-80
2021/06/20 15:52:52;;;;;;;8.75;3.75;;;32.60;61.20;;;;;;3584148;39;20102;-80
2021/06/20 15:55:24;;;;;;;19.67;4.18;;;32.60;61.20;;;;;;3592805;39;20103;-82
2021/06/20 15:57:53;;;;;;;9.55;3.95;;;32.50;60.90;;;;;;3584203;39;20095;-79
2021/06/20 16:00:24;;;;;;;10.52;3.50;;;32.40;61.10;;;;;;3592207;39;20071;-82
2021/06/20 16:03:00;;;;;;;10.73;5.07;;;32.20;60.30;;;;;;3602920;39;20414;-83
2021/06/20 16:05:33;;;;;;;9.85;3.38;;;31.90;60.30;;;;;;3621913;39;20070;-79
2021/06/20 16:08:01;;;;;;;7.63;3.03;;;31.40;61.50;;;;;;3628822;39;20070;-81
2021/06/20 16:10:30;;;;;;;11.98;3.60;;;31.10;62.50;;;;;;3632989;39;20082;-79
2021/06/20 16:12:58;;;;;;;11.05;3.78;;;30.70;63.40;;;;;;3623521;39;20307;-82
2021/06/20 16:15:30;;;;;;;9.98;3.53;;;30.50;64.10;;;;;;3627113;39;20070;-81
2021/06/20 16:17:58;;;;;;;7.45;3.72;;;30.60;64.50;;;;;;3629479;39;20079;-80
2021/06/20 16:20:27;;;;;;;10.38;4.18;;;30.80;64.50;;;;;;3630593;39;20090;-82
2021/06/20 16:22:54;;;;;;;9.27;4.38;;;31.10;64.80;;;;;;3612616;39;20082;-82
2021/06/20 16:25:23;;;;;;;8.15;3.63;;;31.10;65.00;;;;;;3630194;39;20063;-80
2021/06/20 16:27:51;;;;;;;15.70;3.58;;;31.10;65.20;;;;;;3621946;39;20086;-81
2021/06/20 16:30:40;;;;;;;11.27;3.90;;;31.10;65.30;;;;;;3628039;39;20074;-81
2021/06/20 16:33:08;;;;;;;11.48;4.20;;;31.30;65.50;;;;;;3630748;39;20082;-80
2021/06/20 16:35:36;;;;;;;8.25;3.50;;;31.30;65.20;;;;;;3612557;39;20417;-81
2021/06/20 16:38:06;;;;;;;14.38;3.67;;;31.40;64.80;;;;;;3620769;39;20062;-80
2021/06/20 16:40:36;;;;;;;8.77;4.32;;;31.40;64.70;;;;;;3618104;39;20080;-79
2021/06/20 16:43:08;;;;;;;10.40;3.95;;;31.30;64.80;;;;;;3619440;39;20075;-80
2021/06/20 16:45:36;;;;;;;10.02;3.75;;;31.30;65.00;;;;;;3624593;39;20094;-79
2021/06/20 16:48:07;;;;;;;7.20;3.58;;;31.10;65.10;;;;;;3615452;39;20090;-80
2021/06/20 16:50:37;;;;;;;12.18;4.20;;;31.10;64.90;;;;;;3629500;39;20386;-81
2021/06/20 16:53:06;;;;;;;9.05;3.80;;;30.90;65.50;;;;;;3628951;39;20094;-79
2021/06/20 16:55:34;;;;;;;9.82;3.97;;;30.90;66.10;;;;;;3635071;39;20103;-80
2021/06/20 16:58:03;;;;;;;11.63;4.70;;;30.90;66.40;;;;;;3625323;39;20079;-79
2021/06/20 17:00:33;;;;;;;8.20;3.53;;;30.90;66.50;;;;;;3618986;39;20078;-81
2021/06/20 17:03:00;;;;;;;10.55;3.90;;;30.80;65.40;;;;;;3616598;39;20067;-80
2021/06/20 17:05:32;;;;;;;11.75;3.95;;;30.70;64.30;;;;;;3629561;39;20083;-80
2021/06/20 17:08:01;;;;;;;10.05;3.95;;;30.70;64.10;;;;;;3631241;39;20086;-82
2021/06/20 17:10:35;;;;;;;5.90;2.95;;;30.70;64.10;;;;;;3632057;39;20082;-81
2021/06/20 17:13:04;;;;;;;9.43;3.50;;;30.70;64.30;;;;;;3631648;39;20103;-81
2021/06/20 17:15:33;;;;;;;8.20;3.22;;;30.60;64.40;;;;;;3623769;39;20316;-80
2021/06/20 17:18:02;;;;;;;13.52;4.72;;;30.70;64.40;;;;;;3629927;39;20075;-82
2021/06/20 17:20:34;;;;;;;8.95;3.75;;;30.80;64.80;;;;;;3613611;39;20082;-79
2021/06/20 17:23:07;;;;;;;10.45;3.45;;;31.00;64.30;;;;;;3622556;39;20094;-81
2021/06/20 17:25:35;;;;;;;10.52;3.20;;;31.20;64.30;;;;;;3611037;39;20086;-80
2021/06/20 17:28:10;;;;;;;7.60;3.65;;;31.40;64.00;;;;;;3632202;39;20409;-81
2021/06/20 17:30:38;;;;;;;9.13;3.40;;;31.50;63.80;;;;;;3613849;39;20082;-81
2021/06/20 17:33:06;;;;;;;7.45;3.38;;;31.50;63.80;;;;;;3625137;39;20082;-83
2021/06/20 17:35:40;;;;;;;8.77;3.70;;;31.50;63.70;;;;;;3631125;39;20059;-83
2021/06/20 17:38:13;;;;;;;10.57;3.58;;;31.30;64.00;;;;;;3631824;39;20062;-84
2021/06/20 17:40:48;;;;;;;9.90;3.90;;;31.30;64.60;;;;;;3630795;39;20138;-82
2021/06/20 17:43:19;;;;;;;9.30;3.63;;;31.40;64.60;;;;;;3638430;39;20030;-84
2021/06/20 17:45:53;;;;;;;8.45;3.33;;;31.20;64.40;;;;;;3639947;39;20038;-84
2021/06/20 17:48:32;;;;;;;;;;;;;;;;;;;;;
2021/06/20 17:51:07;;;;;;;10.30;3.17;;;31.10;64.70;;;;;;3648267;39;20051;-84
2021/06/20 17:53:36;;;;;;;12.27;3.92;;;31.00;64.50;;;;;;3629334;39;20049;-83
2021/06/20 17:56:08;;;;;;;9.55;3.17;;;30.90;64.70;;;;;;3642345;39;20064;-83
2021/06/20 17:58:54;;;;;;;;;;;;;;;;;;;;;
2021/06/20 18:01:27;;;;;;;8.98;3.70;;;30.80;66.20;;;;;;3629963;39;20042;-82
2021/06/20 18:04:07;;;;;;;7.97;3.65;;;30.80;66.50;;;;;;3622389;39;20062;-84
2021/06/20 18:06:41;;;;;;;8.73;3.55;;;30.50;66.20;;;;;;3624199;39;20050;-82
2021/06/20 18:09:15;;;;;;;8.95;3.20;;;30.40;66.40;;;;;;3632588;39;20077;-84
2021/06/20 18:15:13;;;;;;;9.25;3.53;;;30.00;67.70;;;;;;3622272;39;20076;-84
2021/06/20 18:17:47;;;;;;;7.55;3.67;;;29.90;68.10;;;;;;3630055;39;20083;-84
2021/06/20 18:20:23;;;;;;;8.82;3.58;;;29.70;69.10;;;;;;3641140;39;20053;-85
2021/06/20 18:22:59;;;;;;;9.23;3.80;;;29.60;69.20;;;;;;3621790;39;20031;-84
2021/06/20 18:25:38;;;;;;;8.65;3.70;;;29.50;69.40;;;;;;3613107;39;20061;-84
2021/06/20 18:28:16;;;;;;;10.88;3.55;;;29.50;68.80;;;;;;3600636;39;20092;-84
2021/06/20 18:30:59;;;;;;;10.35;3.42;;;29.30;69.30;;;;;;3613246;39;20079;-85
2021/06/20 18:33:38;;;;;;;8.43;3.38;;;29.20;70.10;;;;;;3613695;39;20051;-84
2021/06/20 18:36:20;;;;;;;6.33;3.30;;;29.00;70.60;;;;;;3620756;39;20056;-84
2021/06/20 18:39:01;;;;;;;9.68;3.03;;;28.90;70.20;;;;;;3613462;39;20063;-83
2021/06/20 18:41:46;;;;;;;12.15;3.50;;;28.90;69.70;;;;;;3622038;39;20039;-81
2021/06/20 18:44:15;;;;;;;11.65;3.45;;;28.70;69.30;;;;;;3606679;39;20088;-83
2021/06/20 18:46:48;;;;;;;10.20;3.58;;;28.60;69.50;;;;;;3609827;39;20047;-83
2021/06/20 18:49:21;;;;;;;8.73;3.45;;;28.50;70.10;;;;;;3619711;39;20075;-81
2021/06/20 18:51:53;;;;;;;8.63;3.33;;;28.50;70.30;;;;;;3608715;39;20054;-82
2021/06/20 18:57:31;;;;;;;9.88;3.47;;;28.40;71.00;;;;;;3575135;40;20072;-81
2021/06/20 19:00:24;;;;;;;9.55;3.25;;;28.40;71.00;;;;;;3598627;40;20068;-84
2021/06/20 19:02:54;;;;;;;12.95;2.97;;;28.20;71.20;;;;;;3584258;40;20140;-82
2021/06/20 19:05:23;;;;;;;9.82;3.30;;;28.20;71.10;;;;;;3583977;40;20115;-81
2021/06/20 19:08:02;;;;;;;9.23;3.70;;;28.10;70.70;;;;;;3583775;40;20096;-80
2021/06/20 19:10:34;;;;;;;7.90;2.92;;;28.10;71.00;;;;;;3592017;40;20544;-82
2021/06/20 19:13:08;;;;;;;7.32;3.33;;;28.00;71.60;;;;;;3584309;40;20064;-83
2021/06/20 19:15:51;;;;;;;10.73;3.70;;;28.00;72.00;;;;;;3581305;40;20091;-83
2021/06/20 19:18:25;;;;;;;8.10;3.92;;;27.90;72.50;;;;;;3583265;40;20088;-83
2021/06/20 19:20:53;;;;;;;7.38;3.90;;;27.90;73.30;;;;;;3579072;40;20377;-82
2021/06/20 19:23:26;;;;;;;10.25;4.00;;;27.80;74.00;;;;;;3582276;40;20091;-81
2021/06/20 19:25:55;;;;;;;9.88;3.90;;;27.70;74.50;;;;;;3591203;40;20067;-82
2021/06/20 19:28:32;;;;;;;5.85;3.47;;;27.70;75.00;;;;;;3574774;40;20519;-83
2021/06/20 19:31:00;;;;;;;11.48;4.50;;;27.60;75.20;;;;;;3582682;40;20095;-82
2021/06/20 19:33:34;;;;;;;10.52;4.35;;;27.60;75.70;;;;;;3582868;40;20303;-81
2021/06/20 19:36:06;;;;;;;15.18;6.20;;;27.60;76.00;;;;;;3589659;40;20092;-82
2021/06/20 19:38:34;;;;;;;8.43;4.28;;;27.50;76.20;;;;;;3586286;40;20056;-83
2021/06/20 19:43:59;;;;;;;8.38;3.55;;;27.50;77.00;;;;;;3585137;40;20083;-83
2021/06/20 19:46:29;;;;;;;9.65;4.43;;;27.40;77.70;;;;;;3585155;40;20069;-83
2021/06/20 19:49:00;;;;;;;10.32;4.70;;;27.40;78.40;;;;;;3591332;40;20088;-81
2021/06/20 19:51:29;;;;;;;10.15;4.85;;;27.40;79.10;;;;;;3590564;40;20087;-83
2021/06/20 19:54:00;;;;;;;10.30;4.63;;;27.40;79.80;;;;;;3582608;40;20068;-83
2021/06/20 19:56:33;;;;;;;8.73;4.40;;;27.30;80.40;;;;;;3593665;39;20036;-82
2021/06/20 19:59:08;;;;;;;8.30;4.35;;;27.30;81.20;;;;;;3578705;40;20069;-82
2021/06/20 20:01:37;;;;;;;11.18;4.25;;;27.20;81.60;;;;;;3579057;40;20085;-83
2021/06/20 20:04:07;;;;;;;10.00;4.90;;;27.20;82.00;;;;;;3570736;40;20089;-83
2021/06/20 20:06:38;;;;;;;14.15;4.80;;;27.20;82.60;;;;;;3595667;40;20092;-84
2021/06/20 20:09:11;;;;;;;13.90;4.68;;;27.20;83.10;;;;;;3579009;40;20104;-82
2021/06/20 20:11:40;;;;;;;9.75;4.00;;;27.20;83.40;;;;;;3577611;40;20061;-84
2021/06/20 20:14:12;;;;;;;7.70;4.63;;;27.20;83.70;;;;;;3569960;40;20093;-83
2021/06/20 20:17:03;;;;;;;9.45;4.57;;;27.20;83.90;;;;;;3579012;40;20097;-83
2021/06/20 20:19:35;;;;;;;10.77;4.93;;;27.20;84.20;;;;;;3569819;40;20433;-84
2021/06/20 20:22:08;;;;;;;11.57;4.72;;;27.20;84.80;;;;;;3579618;40;20088;-83
2021/06/20 20:24:42;;;;;;;13.45;4.68;;;27.20;85.40;;;;;;3558223;40;20081;-82
2021/06/20 20:27:14;;;;;;;13.43;5.60;;;27.20;86.10;;;;;;3542221;40;20363;-82
2021/06/20 20:30:00;;;;;;;11.32;5.00;;;27.10;86.60;;;;;;3550529;40;20066;-83
2021/06/20 20:32:31;;;;;;;12.77;5.13;;;27.20;87.20;;;;;;3558404;40;20078;-82
2021/06/20 20:35:23;;;;;;;10.98;5.25;;;27.10;87.80;;;;;;3524100;40;20078;-83
2021/06/20 20:38:20;;;;;;;11.40;5.53;;;27.00;88.30;;;;;;3529008;40;20058;-84
2021/06/20 20:40:50;;;;;;;12.57;5.50;;;27.00;88.90;;;;;;3530737;40;20079;-83
2021/06/20 20:43:23;;;;;;;10.88;6.15;;;26.90;89.40;;;;;;3530714;40;20134;-83
2021/06/20 20:45:55;;;;;;;8.70;5.13;;;26.80;90.10;;;;;;3529873;40;20095;-83
2021/06/20 20:48:25;;;;;;;17.85;5.60;;;26.70;90.40;;;;;;3530385;40;20121;-82
2021/06/20 20:51:04;;;;;;;10.05;5.40;;;26.60;90.70;;;;;;3528552;40;20120;-83
2021/06/20 20:53:35;;;;;;;11.85;5.35;;;26.60;91.00;;;;;;3515475;40;20072;-86
2021/06/20 20:56:10;;;;;;;15.68;5.78;;;26.60;91.20;;;;;;3517878;40;20438;-86
2021/06/20 20:58:41;;;;;;;10.52;5.35;;;26.60;91.30;;;;;;3533935;40;20099;-84
2021/06/20 21:01:13;;;;;;;11.70;5.55;;;26.60;91.40;;;;;;3533347;40;20071;-84
